Station 45203 - Huron Buoy Image indicating link to RSS feed of recent meteorological observations for station 45203


Conditions at 45203 as of
(10:10 pm EDT on 04/18/2024)
0210 GMT on 04/19/2024:
     

Click on the graph icon in the table below to see a time series plot of the last five days of that observation.

5-day plot - Wind Direction Wind Direction (WDIR):ENE ( 70 deg true )
5-day plot - Wind Speed Wind Speed (WSPD): 9.7 kts
5-day plot - Wind Gust Wind Gust (GST): 11.7 kts
5-day plot - Wave Height Wave Height (WVHT): 1.0 ft
5-day plot - Dominant Wave Period Dominant Wave Period (DPD): 3 sec
5-day plot - Mean Wave Direction Mean Wave Direction (MWD): NE ( 40 deg true )
5-day plot - Air Temperature Air Temperature (ATMP): 53.8 °F
5-day plot - Water Temperature Water Temperature (WTMP): 54.5 °F
5-day plot - Dew Point Dew Point (DEWP): 50.4 °F
5-day plot - Wind Speed at 10 Meters Wind Speed at 10 meters (WSPD10M): 9.7 kts
5-day plot - Wind Speed at 20 Meters Wind Speed at 20 meters (WSPD20M): 11.7 kts
5-day plot -  Wind Speed, Wind Gust and Atmospheric Pressure Combined plot of Wind Speed, Gust, and Air Pressure
Previous observations
TIME
(EDT)
5-day plot - Wind Direction
WDIR
 
5-day plot - Wind Speed
WSPD
kts
5-day plot - Wind Gust
GST
kts
5-day plot - Wave Height
WVHT
ft
5-day plot - Dominant Wave Period
DPD
sec
5-day plot - Average Wave Period
APD
sec
5-day plot - Mean Wave Direction
MWD
 
5-day plot - Atmospheric Pressure
PRES
in
5-day plot - Pressure Tendency
PTDY
in
5-day plot - Air Temperature
ATMP
°F
5-day plot - Water Temperature
WTMP
°F
5-day plot - Dew Point
DEWP
°F
5-day plot - Salinity
SAL
psu
5-day plot - Visibility
VIS
nmi
5-day plot - Tide (above MLLW)
TIDE
ft
2024-04-18 10:00 pm NE 9.7 11.7 1.0 3-NNE-- 53.6 54.5 50.2---
2024-04-18 09:50 pmNNE 9.7 11.7 0.7--NNE-- 53.6 54.5 50.4---
2024-04-18 09:40 pmNNE 9.7 11.7 0.7--NNE-- 54.0 54.5 50.7---
2024-04-18 09:30 pmNNE 7.8 9.7 0.7--NNE-- 54.5 54.5 51.6---
2024-04-18 09:20 pmNNE 5.8 9.7 0.7--NNE-- 54.7 54.3 52.0---
2024-04-18 09:10 pm NE 5.8 7.8 0.7--NNE-- 54.9 54.3 52.2---
2024-04-18 09:00 pm NE 5.8 7.8 0.7--NNE-- 55.0 54.3 52.0---
2024-04-18 08:50 pm NE 5.8 7.8 0.7-- NE-- 55.4 54.3 51.8---
2024-04-18 08:40 pm NE 5.8 9.7 0.7--NNE-- 55.2 54.5 51.8---
2024-04-18 08:30 pm NE 5.8 7.8 0.7-- NE-- 55.0 54.5 52.0---
2024-04-18 08:20 pm NE 5.8 5.8 1.0 2- NE-- 54.9 54.5 52.0---
2024-04-18 08:10 pmENE 5.8 9.7 0.7-- NE-- 55.0 54.5 51.8---
2024-04-18 08:00 pmENE 9.7 11.7 1.0 2-NNE-- 55.0 54.5 51.3---
2024-04-18 07:50 pm NE 9.7 13.6 1.0 2- NE-- 54.9 54.5 50.9---
2024-04-18 07:40 pm NE 9.7 13.6 1.0 2-NNE-- 54.9 54.5 50.5---
2024-04-18 07:30 pm NE 9.7 13.6 1.0 2- NE-- 55.0 54.5 50.2---
2024-04-18 07:20 pm NE 11.7 15.5 1.0 2- NE-- 55.0 54.5 50.0---
2024-04-18 07:10 pm NE 11.7 17.5 1.0 2- NE-- 55.2 54.5 49.8---
2024-04-18 07:00 pm NE 13.6 17.5 1.0 2- NE-- 55.0 54.5 49.8---
2024-04-18 06:50 pm NE 11.7 15.5 0.7-- NE-- 55.0 54.5 49.6---
2024-04-18 06:40 pm NE 11.7 15.5 0.7-- NE-- 54.7 54.5 49.5---
2024-04-18 06:30 pmENE 13.6 17.5 0.7-- NE-- 54.5 54.5 49.6---
2024-04-18 06:20 pmENE 11.7 15.5 0.7-- NE-- 54.5 54.7 49.8---
2024-04-18 06:10 pm NE 9.7 13.6 0.7-- NE-- 54.7 54.7 49.6---
2024-04-18 06:00 pmENE 9.7 11.7 0.7-- NE-- 54.3 54.7 49.5---
2024-04-18 05:50 pm NE 9.7 11.7 0.7-- NE-- 54.1 54.9 49.3---
2024-04-18 05:40 pm NE 7.8 9.7 0.7--NNE-- 54.1 54.7 49.1---
2024-04-18 05:30 pm NE 7.8 9.7 0.7-- NE-- 54.1 54.7 48.9---
2024-04-18 05:20 pmNNE 7.8 9.7 0.7--NNE-- 54.1 54.9 48.9---
2024-04-18 05:10 pmNNE 7.8 9.7 0.7-- NE-- 54.1 54.9 48.7---
2024-04-18 05:00 pmNNE 7.8 9.7 0.7-- NE-- 54.1 54.9 48.7---
2024-04-18 04:50 pmNNE 7.8 9.7 0.7-- NE-- 54.1 55.0 48.4---
2024-04-18 04:40 pm NE 7.8 9.7 0.7--NNE-- 54.0 54.7 48.4---
2024-04-18 04:30 pm NE 7.8 9.7 0.7-- NE-- 53.8 54.7 48.4---
2024-04-18 04:20 pm NE 7.8 9.7 0.7--NNE-- 53.6 54.7 48.4---
2024-04-18 04:10 pmNNE 7.8 9.7 0.7--NNE-- 53.6 54.9 48.2---
2024-04-18 04:00 pmNNE 7.8 9.7 0.7-- N-- 53.4 54.9 48.2---
2024-04-18 03:40 pmNNE 7.8 9.7 0.7--NNE-- 53.4 54.9 48.0---
2024-04-18 03:30 pm N 7.8 9.7 0.7--NNE-- 53.2 54.9 47.8---
2024-04-18 03:20 pmNNE 7.8 9.7 0.7--NNE-- 53.2 54.9 48.0---
2024-04-18 03:10 pmNNE 7.8 9.7 0.7-- N-- 53.2 54.9 47.8---
2024-04-18 03:00 pmNNE 7.8 9.7 0.7--NNE-- 53.2 54.9 47.8---
2024-04-18 02:50 pmNNE 7.8 9.7 0.7--WNW-- 53.2 54.9 47.7---
2024-04-18 02:40 pmNNE 7.8 9.7 0.7-- W-- 53.2 55.2 48.0---
2024-04-18 02:30 pmNNE 7.8 9.7 0.7--WNW-- 53.2 55.2 47.8---
2024-04-18 02:10 pmNNE 7.8 9.7 0.7--WNW-- 53.1 54.9 47.8---
2024-04-18 02:00 pmNNE 7.8 9.7 0.7--WNW-- 53.1 54.9 48.2---
2024-04-18 01:50 pmNNE 7.8 9.7 0.7--WNW-- 53.1 55.0 48.2---
2024-04-18 01:40 pmNNE 7.8 9.7 0.7--WNW-- 53.2 55.2 48.0---
2024-04-18 01:30 pm N 7.8 9.7 0.7--WNW-- 53.2 55.2 48.0---
2024-04-18 01:10 pmNNE 5.8 7.8 0.7--WNW-- 53.2 54.3 48.2---
2024-04-18 01:00 pmNNE 7.8 9.7 0.7--WNW-- 53.2 54.3 48.2---
2024-04-18 12:50 pmNNE 7.8 9.7 0.7--WNW-- 53.4 54.5 48.7---
2024-04-18 12:40 pm N 7.8 7.8 0.7-- NW-- 53.4 54.3 48.2---
2024-04-18 12:30 pm N 5.8 7.8 0.7--WNW-- 53.4 54.3 48.7---
2024-04-18 12:20 pm N 7.8 9.7 1.0 3- NW-- 53.4 54.1 48.9---
2024-04-18 12:10 pm N 5.8 7.8 0.7-- NW-- 54.3 53.8 48.7---
2024-04-18 11:40 amNNW 5.8 7.8 1.0 3- NW-- 54.9 53.4 48.2---
2024-04-18 11:30 amNNW 5.8 9.7 1.0 3- NW-- 54.7 53.4 48.0---
2024-04-18 11:20 am NW 7.8 9.7 1.0 3- NW-- 55.0 53.2 47.3---
2024-04-18 11:10 amWNW 9.7 13.6 1.0 3- NW-- 55.2 53.1 46.6---
2024-04-18 11:00 amWNW 9.7 15.5 1.0 3- NW-- 55.0 53.1 46.6---
2024-04-18 10:40 am W 9.7 15.5 1.0 3- NW-- 55.0 52.9 46.2---
2024-04-18 10:30 am W 11.7 15.5 1.0 3- NW-- 55.0 52.9 46.4---
2024-04-18 10:20 amWNW 11.7 17.5 1.0 3- NW-- 55.0 52.9 46.4---
2024-04-18 10:10 am W 15.5 21.4 1.3 3- NW-- 55.0 52.9 46.2---
2024-04-18 10:00 amWNW 11.7 17.5 1.0 3- NW-- 55.0 52.9 46.8---
2024-04-18 09:50 amWNW 11.7 17.5 1.3 3-NNW-- 55.0 52.9 46.8---
2024-04-18 09:40 am W 11.7 17.5 1.0 3-NNW-- 54.9 52.9 47.1---
2024-04-18 09:30 am W 13.6 19.4 1.0 3-NNW-- 54.9 52.9 46.9---
2024-04-18 09:10 am W 9.7 17.5 1.0 3-NNW-- 54.7 52.9 47.7---
2024-04-18 09:00 am W 13.6 17.5 1.0 5- NE-- 54.7 52.9 47.3---
2024-04-18 08:50 am W 11.7 15.5 1.0 3-NNW-- 54.9 52.9 47.7---
2024-04-18 08:40 am W 11.7 15.5 1.0 3- NW-- 54.7 52.9 48.0---
2024-04-18 08:30 am W 11.7 15.5 1.0 3- NW-- 54.9 52.9 47.8---
2024-04-18 08:20 am W 13.6 19.4 1.0 3- NW-- 54.9 52.9 47.5---
2024-04-18 08:10 am W 11.7 15.5 1.0 3- NW-- 54.7 52.9 48.0---
2024-04-18 08:00 am W 9.7 15.5 1.0 3- NW-- 54.7 52.9 48.0---
2024-04-18 07:40 am W 9.7 13.6 1.0 3- NW-- 54.9 52.9 48.2---
2024-04-18 07:30 am W 9.7 15.5 1.0 3- NW-- 54.9 52.9 48.4---
2024-04-18 07:20 am W 9.7 11.7 1.3 3- NW-- 54.9 52.9 48.6---
2024-04-18 07:10 am W 7.8 11.7 1.3 3- NW-- 55.0 52.9 48.6---
2024-04-18 07:00 am W 9.7 13.6 1.0 3-NNW-- 55.0 52.9 48.7---
2024-04-18 06:50 am W 9.7 13.6 1.0 5- NE-- 55.0 52.9 48.6---
2024-04-18 06:40 am W 11.7 15.5 1.0 2- NW-- 55.0 52.9 48.4---
2024-04-18 06:30 amWNW 13.6 17.5 1.0 5- NE-- 55.2 52.9 48.4---
2024-04-18 06:20 am W 7.8 17.5 0.7-- NE-- 55.6 52.9 49.6---
2024-04-18 06:10 am W 7.8 11.7 0.7-- NE-- 55.8 52.9 49.8---
2024-04-18 06:00 am W 9.7 13.6 1.0 5- NE-- 55.8 52.9 49.8---
2024-04-18 05:50 am W 9.7 15.5 1.0 5- NE-- 55.9 52.9 49.8---
2024-04-18 05:40 am W 9.7 13.6 0.7-- NE-- 55.8 52.9 50.0---
2024-04-18 05:30 amWSW 7.8 11.7 0.7--ENE-- 55.8 52.9 50.2---
2024-04-18 05:20 am W 7.8 11.7 0.7-- NE-- 55.9 52.9 50.0---
2024-04-18 05:10 am W 9.7 11.7 1.0 5- NE-- 55.9 52.9 50.0---
2024-04-18 05:00 am W 9.7 13.6 1.0 5- NE-- 56.1 52.9 49.8---
2024-04-18 04:40 am W 9.7 11.7 1.0 5- NE-- 56.1 52.9 50.0---
2024-04-18 04:30 am W 9.7 13.6 1.0 5- NE-- 55.9 52.9 50.0---
2024-04-18 04:20 am W 9.7 13.6 1.0 4- NE-- 55.9 52.9 50.0---
2024-04-18 04:10 am W 9.7 15.5 1.0 5- NE-- 55.9 52.9 50.0---
2024-04-18 03:50 am W 9.7 13.6 1.0 5- NE-- 55.9 52.9 50.2---
2024-04-18 03:40 am W 9.7 13.6 1.0 5- NE-- 56.3 52.9 50.0---
2024-04-18 03:30 am W 9.7 13.6 1.0 5- NE-- 56.3 52.9 50.0---
2024-04-18 03:20 am W 9.7 13.6 1.0 5- NE-- 56.3 52.9 50.0---
2024-04-18 03:10 am W 9.7 15.5 1.0 5- NE-- 56.3 52.9 50.0---
2024-04-18 03:00 am W 9.7 15.5 1.0 5- NE-- 56.3 52.9 50.0---
2024-04-18 02:50 am W 11.7 15.5 1.0 5- NE-- 56.5 52.9 50.0---
2024-04-18 02:40 am W 11.7 15.5 1.0 4- NE-- 56.7 52.9 50.2---
2024-04-18 02:30 am W 11.7 15.5 1.0 5- NE-- 56.7 52.9 50.4---
2024-04-18 02:20 am W 11.7 15.5 1.0 5- NE-- 57.0 53.1 50.4---
2024-04-18 02:10 am W 11.7 17.5 1.0 5- NE-- 57.6 53.1 50.4---
2024-04-18 02:00 am W 13.6 17.5 1.0 5- NE-- 57.7 53.1 50.5---
2024-04-18 01:50 am W 13.6 19.4 1.0 5- NE-- 57.7 53.1 50.9---
2024-04-18 01:40 am W 11.7 17.5 1.0 5- NE-- 57.6 53.1 51.3---
2024-04-18 01:30 am W 11.7 15.5 1.0 5- NE-- 57.7 53.1 51.4---
2024-04-18 01:20 am W 11.7 15.5 1.0 5- NE-- 57.9 53.1 51.3---
2024-04-18 01:10 am W 11.7 15.5 1.0 5- NE-- 57.7 53.1 51.3---
2024-04-18 01:00 am W 9.7 15.5 1.0 5- NE-- 57.7 53.1 51.3---
2024-04-18 12:40 am W 9.7 13.6 1.0 5- NE-- 57.7 53.1 51.4---
2024-04-18 12:30 am W 9.7 13.6 1.0 5- NE-- 57.9 53.1 51.4---
2024-04-18 12:20 am W 9.7 15.5 1.0 5- NE-- 58.3 53.1 51.6---
2024-04-18 12:10 amWSW 11.7 15.5 1.0 5- NE-- 58.6 53.1 51.6---
2024-04-18 12:00 am W 9.7 13.6 1.0 5- NE-- 58.8 53.1 51.6---
2024-04-17 11:50 pm W 11.7 15.5 1.0 5- NE-- 59.2 53.1 51.6---
2024-04-17 11:40 pm W 11.7 17.5 1.0 5- NE-- 59.2 53.1 51.6---
2024-04-17 11:30 pm W 11.7 15.5 1.0 5- NE-- 59.2 53.1 51.6---
2024-04-17 11:10 pmWSW 9.7 13.6 1.0 5- NE-- 59.2 53.1 51.8---
2024-04-17 10:50 pm W 9.7 13.6 1.3 5- NE-- 59.5 53.1 52.2---
2024-04-17 10:40 pm W 9.7 13.6 1.3 5- NE-- 59.9 53.1 52.2---
2024-04-17 10:30 pm W 9.7 15.5 1.3 5- NE-- 60.1 53.1 52.5---
2024-04-17 10:20 pm W 9.7 13.6 1.3 5- NE-- 60.4 53.1 52.7---
2024-04-17 10:10 pm W 9.7 13.6 1.3 5- NE-- 60.3 53.1 52.9---
2024-04-17 10:00 pm W 9.7 13.6 1.0 5- NE-- 60.6 53.1 53.2---
2024-04-17 09:50 pm W 7.8 13.6 1.3 5- NE-- 60.4 53.1 53.4---

Detailed Wave Summary
for 45203 as of
(10:10 pm EDT on 04/18/2024)
0210 GMT on 04/19/2024:

These wave data are displayed in rounded times.

     

Click on the graph icon in the table below to see a time series plot of the last five days of that observation.

5-day plot - Significant Wave Height Significant Wave Height (WVHT): 1.0 ft
Previous observations
TIME
(EDT)
5-day plot - Wave Height
WVHT
ft
5-day plot - Swell Height
SwH
ft
5-day plot - Swell Period
SwP
sec
5-day plot - Swell Direction
SwD
 
5-day plot - Wind Wave Height
WWH
ft
5-day plot - Wind Wave Period
WWP
sec
5-day plot - Wind Wave Direction
WWD
 
5-day plot - Wave Steepness
STEEPNESS
 
5-day plot - Average Wave Period
APD
sec
2024-04-18 10:00 pm 1.0------ N/A-
2024-04-18 09:50 pm 0.7------ N/A-
2024-04-18 09:40 pm 0.7------ N/A-
2024-04-18 09:30 pm 0.7------ N/A-
2024-04-18 09:20 pm 0.7------ N/A-
2024-04-18 09:10 pm 0.7------ N/A-
2024-04-18 09:00 pm 0.7------ N/A-
2024-04-18 08:50 pm 0.7------ N/A-
2024-04-18 08:40 pm 0.7------ N/A-
2024-04-18 08:30 pm 0.7------ N/A-
2024-04-18 08:20 pm 0.7------ N/A-
2024-04-18 08:10 pm 0.7------ N/A-
2024-04-18 08:00 pm 1.0------ N/A-
2024-04-18 07:50 pm 1.0------ N/A-
2024-04-18 07:40 pm 1.0------ N/A-
2024-04-18 07:30 pm 1.0------ N/A-
2024-04-18 07:20 pm 1.0------ N/A-
2024-04-18 07:10 pm 1.0------ N/A-
2024-04-18 07:00 pm 1.0------ N/A-
2024-04-18 06:50 pm 0.7------ N/A-
2024-04-18 06:40 pm 0.7------ N/A-
2024-04-18 06:30 pm 0.7------ N/A-
2024-04-18 06:20 pm 0.7------ N/A-
2024-04-18 06:10 pm 0.7------ N/A-
2024-04-18 06:00 pm 0.7------ N/A-
2024-04-18 05:50 pm 0.7------ N/A-
2024-04-18 05:40 pm 0.7------ N/A-
2024-04-18 05:30 pm 0.7------ N/A-
2024-04-18 05:20 pm 0.7------ N/A-
2024-04-18 05:10 pm 0.7------ N/A-
2024-04-18 05:00 pm 0.7------ N/A-
2024-04-18 04:50 pm 0.7------ N/A-
2024-04-18 04:40 pm 0.7------ N/A-
2024-04-18 04:30 pm 0.7------ N/A-
2024-04-18 04:20 pm 0.7------ N/A-
2024-04-18 04:10 pm 0.7------ N/A-
2024-04-18 04:00 pm 0.7------ N/A-
2024-04-18 03:40 pm 0.7------ N/A-
2024-04-18 03:30 pm 0.7------ N/A-
2024-04-18 03:20 pm 0.7------ N/A-
2024-04-18 03:10 pm 0.7------ N/A-
2024-04-18 03:00 pm 0.7------ N/A-
2024-04-18 02:50 pm 0.7------ N/A-
2024-04-18 02:40 pm 0.7------ N/A-
2024-04-18 02:30 pm 0.7------ N/A-
2024-04-18 02:10 pm 0.7------ N/A-
2024-04-18 02:00 pm 0.7------ N/A-
2024-04-18 01:50 pm 0.7------ N/A-
2024-04-18 01:40 pm 0.7------ N/A-
2024-04-18 01:30 pm 0.7------ N/A-
2024-04-18 01:10 pm 0.7------ N/A-
2024-04-18 01:00 pm 0.7------ N/A-
2024-04-18 12:50 pm 0.7------ N/A-
2024-04-18 12:40 pm 0.7------ N/A-
2024-04-18 12:30 pm 0.7------ N/A-
2024-04-18 12:20 pm 1.0------ N/A-
2024-04-18 12:10 pm 0.7------ N/A-
2024-04-18 11:40 am 1.0------ N/A-
2024-04-18 11:30 am 1.0------ N/A-
2024-04-18 11:20 am 1.0------ N/A-
2024-04-18 11:10 am 1.0------ N/A-
2024-04-18 11:00 am 1.0------ N/A-
2024-04-18 10:40 am 1.0------ N/A-
2024-04-18 10:30 am 1.0------ N/A-
2024-04-18 10:20 am 1.0------ N/A-
2024-04-18 10:10 am 1.3------ N/A-
2024-04-18 10:00 am 1.0------ N/A-
2024-04-18 09:50 am 1.3------ N/A-
2024-04-18 09:40 am 1.0------ N/A-
2024-04-18 09:30 am 1.0------ N/A-
2024-04-18 09:10 am 1.0------ N/A-
2024-04-18 09:00 am 1.0------ N/A-
2024-04-18 08:50 am 1.0------ N/A-
2024-04-18 08:40 am 1.0------ N/A-
2024-04-18 08:30 am 1.0------ N/A-
2024-04-18 08:20 am 1.0------ N/A-
2024-04-18 08:10 am 1.0------ N/A-
2024-04-18 08:00 am 1.0------ N/A-
2024-04-18 07:40 am 1.0------ N/A-
2024-04-18 07:30 am 1.0------ N/A-
2024-04-18 07:20 am 1.3------ N/A-
2024-04-18 07:10 am 1.3------ N/A-
2024-04-18 07:00 am 1.0------ N/A-
2024-04-18 06:50 am 1.0------ N/A-
2024-04-18 06:40 am 1.0------ N/A-
2024-04-18 06:30 am 1.0------ N/A-
2024-04-18 06:20 am 0.7------ N/A-
2024-04-18 06:10 am 0.7------ N/A-
2024-04-18 06:00 am 1.0------ N/A-
2024-04-18 05:50 am 1.0------ N/A-
2024-04-18 05:40 am 0.7------ N/A-
2024-04-18 05:30 am 0.7------ N/A-
2024-04-18 05:20 am 0.7------ N/A-
2024-04-18 05:10 am 1.0------ N/A-
2024-04-18 05:00 am 1.0------ N/A-
2024-04-18 04:40 am 1.0------ N/A-
2024-04-18 04:30 am 1.0------ N/A-
2024-04-18 04:20 am 1.0------ N/A-
2024-04-18 04:10 am 1.0------ N/A-
2024-04-18 03:50 am 1.0------ N/A-
2024-04-18 03:40 am 1.0------ N/A-
2024-04-18 03:30 am 1.0------ N/A-
2024-04-18 03:20 am 1.0------ N/A-
2024-04-18 03:10 am 1.0------ N/A-
2024-04-18 03:00 am 1.0------ N/A-
2024-04-18 02:50 am 1.0------ N/A-
2024-04-18 02:40 am 1.0------ N/A-
2024-04-18 02:30 am 1.0------ N/A-
2024-04-18 02:20 am 1.0------ N/A-
2024-04-18 02:10 am 1.0------ N/A-
2024-04-18 02:00 am 1.0------ N/A-
2024-04-18 01:50 am 1.0------ N/A-
2024-04-18 01:40 am 1.0------ N/A-
2024-04-18 01:30 am 1.0------ N/A-
2024-04-18 01:20 am 1.0------ N/A-
2024-04-18 01:10 am 1.0------ N/A-
2024-04-18 01:00 am 1.0------ N/A-
2024-04-18 12:40 am 1.0------ N/A-
2024-04-18 12:30 am 1.0------ N/A-
2024-04-18 12:20 am 1.0------ N/A-
2024-04-18 12:10 am 1.0------ N/A-
2024-04-18 12:00 am 1.0------ N/A-
2024-04-17 11:50 pm 1.0------ N/A-
2024-04-17 11:40 pm 1.0------ N/A-
2024-04-17 11:30 pm 1.0------ N/A-
2024-04-17 11:10 pm 1.0------ N/A-
2024-04-17 10:50 pm 1.3------ N/A-
2024-04-17 10:40 pm 1.3------ N/A-
2024-04-17 10:30 pm 1.3------ N/A-
2024-04-17 10:20 pm 1.3------ N/A-
2024-04-17 10:10 pm 1.3------ N/A-
2024-04-17 10:00 pm 1.0------ N/A-
2024-04-17 09:50 pm 1.3------ N/A-

Solar Radiation Conditions at 45203 as of
(10:10 pm EDT on 04/18/2024)
0210 GMT on 04/19/2024:
     

Click on the graph icon in the table below to see a time series plot of the last five days of that observation.

5-day plot - Short Wave Radiation 1 Short Wave Radiation 1 (SRAD1): 0.0watts/meter2
Previous observations
TIME
(EDT)
5-day plot - Short Wave Radiation 1
SRAD1
w/m2
5-day plot - Short Wave Radiation 2
SRAD2
w/m2
5-day plot - Long Wave Radiation
LRAD
w/m2
2024-04-18 10:00 pm 0.0--
2024-04-18 09:50 pm 0.0--
2024-04-18 09:40 pm 0.0--
2024-04-18 09:30 pm 0.0--
2024-04-18 09:20 pm 0.0--
2024-04-18 09:10 pm 0.0--
2024-04-18 09:00 pm 0.0--
2024-04-18 08:50 pm 0.0--
2024-04-18 08:40 pm 0.2--
2024-04-18 08:30 pm 0.9--
2024-04-18 08:20 pm 2.0--
2024-04-18 08:10 pm 4.8--
2024-04-18 08:00 pm 13.1--
2024-04-18 07:50 pm 28.6--
2024-04-18 07:40 pm 55.2--
2024-04-18 07:30 pm 69.5--
2024-04-18 07:20 pm 87.6--
2024-04-18 07:10 pm 94.1--
2024-04-18 07:00 pm 92.7--
2024-04-18 06:50 pm 193.0--
2024-04-18 06:40 pm 235.3--
2024-04-18 06:30 pm 146.8--
2024-04-18 06:20 pm 211.9--
2024-04-18 06:10 pm 362.9--
2024-04-18 06:00 pm 374.9--
2024-04-18 05:50 pm 299.6--
2024-04-18 05:40 pm 424.0--
2024-04-18 05:30 pm 338.3--
2024-04-18 05:20 pm 503.8--
2024-04-18 05:10 pm 544.9--
2024-04-18 05:00 pm 547.7--
2024-04-18 04:50 pm 640.8--
2024-04-18 04:40 pm 538.1--
2024-04-18 04:30 pm 672.1--
2024-04-18 04:20 pm 678.9--
2024-04-18 04:10 pm 702.6--
2024-04-18 04:00 pm 685.5--
2024-04-18 03:40 pm 748.4--
2024-04-18 03:30 pm 770.8--
2024-04-18 03:20 pm 795.4--
2024-04-18 03:10 pm 739.1--
2024-04-18 03:00 pm 724.8--
2024-04-18 02:50 pm 764.3--
2024-04-18 02:40 pm 858.0--
2024-04-18 02:30 pm 782.4--
2024-04-18 02:10 pm 908.0--
2024-04-18 02:00 pm 909.0--
2024-04-18 01:50 pm 912.0--
2024-04-18 01:40 pm 913.0--
2024-04-18 01:30 pm 911.0--
2024-04-18 01:10 pm 907.0--
2024-04-18 01:00 pm 897.0--
2024-04-18 12:50 pm 895.0--
2024-04-18 12:40 pm 858.0--
2024-04-18 12:30 pm 897.0--
2024-04-18 12:20 pm 867.0--
2024-04-18 12:10 pm 881.0--
2024-04-18 11:40 am 756.0--
2024-04-18 11:30 am 835.0--
2024-04-18 11:20 am 812.0--
2024-04-18 11:10 am 790.3--
2024-04-18 11:00 am 627.2--
2024-04-18 10:40 am 443.3--
2024-04-18 10:30 am 425.5--
2024-04-18 10:20 am 399.3--
2024-04-18 10:10 am 328.8--
2024-04-18 10:00 am 313.2--
2024-04-18 09:50 am 297.6--
2024-04-18 09:40 am 268.4--
2024-04-18 09:30 am 205.9--
2024-04-18 09:10 am 137.0--
2024-04-18 09:00 am 97.7--
2024-04-18 08:50 am 82.4--
2024-04-18 08:40 am 78.6--
2024-04-18 08:30 am 75.3--
2024-04-18 08:20 am 44.9--
2024-04-18 08:10 am 53.7--
2024-04-18 08:00 am 59.8--
2024-04-18 07:40 am 34.8--
2024-04-18 07:30 am 23.2--
2024-04-18 07:20 am 17.3--
2024-04-18 07:10 am 11.1--
2024-04-18 07:00 am 5.3--
2024-04-18 06:50 am 2.4--
2024-04-18 06:40 am 0.6--
2024-04-18 06:30 am 0.1--
2024-04-18 06:20 am 0.0--
2024-04-18 06:10 am 0.0--
2024-04-18 06:00 am 0.0--
2024-04-18 05:50 am 0.0--
2024-04-18 05:40 am 0.0--
2024-04-18 05:30 am 0.0--
2024-04-18 05:20 am 0.0--
2024-04-18 05:10 am 0.0--
2024-04-18 05:00 am 0.0--
2024-04-18 04:40 am 0.0--
2024-04-18 04:30 am 0.0--
2024-04-18 04:20 am 0.0--
2024-04-18 04:10 am 0.0--
2024-04-18 03:50 am 0.0--
2024-04-18 03:40 am 0.0--
2024-04-18 03:30 am 0.0--
2024-04-18 03:20 am 0.0--
2024-04-18 03:10 am 0.0--
2024-04-18 03:00 am 0.0--
2024-04-18 02:50 am 0.0--
2024-04-18 02:40 am 0.0--
2024-04-18 02:30 am 0.0--
2024-04-18 02:20 am 0.0--
2024-04-18 02:10 am 0.0--
2024-04-18 02:00 am 0.0--
2024-04-18 01:50 am 0.0--
2024-04-18 01:40 am 0.0--
2024-04-18 01:30 am 0.0--
2024-04-18 01:20 am 0.0--
2024-04-18 01:10 am 0.0--
2024-04-18 01:00 am 0.0--
2024-04-18 12:40 am 0.0--
2024-04-18 12:30 am 0.0--
2024-04-18 12:20 am 0.0--
2024-04-18 12:10 am 0.0--
2024-04-18 12:00 am 0.0--
2024-04-17 11:50 pm 0.0--
2024-04-17 11:40 pm 0.0--
2024-04-17 11:30 pm 0.0--
2024-04-17 11:10 pm 0.0--
2024-04-17 10:50 pm 0.0--
2024-04-17 10:40 pm 0.0--
2024-04-17 10:30 pm 0.0--
2024-04-17 10:20 pm 0.0--
2024-04-17 10:10 pm 0.0--
2024-04-17 10:00 pm 0.0--
2024-04-17 09:50 pm 0.0--